sensor_id;sensor_type;location;lat;lon;timestamp;P1;durP1;ratioP1;P2;durP2;ratioP2
25615;SDS011;13482;48.234;13.006;2023-12-20T00:01:50;5.03;;;3.25;;
25615;SDS011;13482;48.234;13.006;2023-12-20T00:04:18;6.47;;;3.95;;
25615;SDS011;13482;48.234;13.006;2023-12-20T00:06:45;5.55;;;3.40;;
25615;SDS011;13482;48.234;13.006;2023-12-20T00:09:13;5.50;;;3.65;;
25615;SDS011;13482;48.234;13.006;2023-12-20T00:11:40;5.38;;;3.50;;
25615;SDS011;13482;48.234;13.006;2023-12-20T00:14:08;5.93;;;3.20;;
25615;SDS011;13482;48.234;13.006;2023-12-20T00:16:36;5.82;;;3.30;;
25615;SDS011;13482;48.234;13.006;2023-12-20T00:19:04;5.45;;;3.60;;
25615;SDS011;13482;48.234;13.006;2023-12-20T00:21:31;5.68;;;3.33;;
25615;SDS011;13482;48.234;13.006;2023-12-20T00:23:59;4.88;;;3.33;;
25615;SDS011;13482;48.234;13.006;2023-12-20T00:26:26;6.72;;;3.40;;
25615;SDS011;13482;48.234;13.006;2023-12-20T00:28:55;5.05;;;3.13;;
25615;SDS011;13482;48.234;13.006;2023-12-20T00:31:22;4.95;;;3.00;;
25615;SDS011;13482;48.234;13.006;2023-12-20T00:33:50;4.25;;;2.92;;
25615;SDS011;13482;48.234;13.006;2023-12-20T00:36:17;4.90;;;3.20;;
25615;SDS011;13482;48.234;13.006;2023-12-20T00:38:45;5.15;;;3.50;;
25615;SDS011;13482;48.234;13.006;2023-12-20T00:41:12;5.50;;;3.35;;
25615;SDS011;13482;48.234;13.006;2023-12-20T00:43:40;5.15;;;3.38;;
25615;SDS011;13482;48.234;13.006;2023-12-20T00:46:07;4.82;;;3.10;;
25615;SDS011;13482;48.234;13.006;2023-12-20T00:48:35;4.75;;;3.03;;
25615;SDS011;13482;48.234;13.006;2023-12-20T00:51:03;4.57;;;2.70;;
25615;SDS011;13482;48.234;13.006;2023-12-20T00:53:30;4.80;;;2.90;;
25615;SDS011;13482;48.234;13.006;2023-12-20T00:55:58;5.97;;;3.30;;
25615;SDS011;13482;48.234;13.006;2023-12-20T00:58:25;5.15;;;2.85;;
25615;SDS011;13482;48.234;13.006;2023-12-20T01:00:54;5.13;;;3.17;;
25615;SDS011;13482;48.234;13.006;2023-12-20T01:03:22;6.10;;;3.55;;
25615;SDS011;13482;48.234;13.006;2023-12-20T01:05:50;5.10;;;3.33;;
25615;SDS011;13482;48.234;13.006;2023-12-20T01:08:17;6.38;;;3.90;;
25615;SDS011;13482;48.234;13.006;2023-12-20T01:10:45;5.57;;;3.60;;
25615;SDS011;13482;48.234;13.006;2023-12-20T01:13:13;6.25;;;3.65;;
25615;SDS011;13482;48.234;13.006;2023-12-20T01:15:41;5.18;;;3.83;;
25615;SDS011;13482;48.234;13.006;2023-12-20T01:18:09;5.57;;;3.78;;
25615;SDS011;13482;48.234;13.006;2023-12-20T01:20:36;5.07;;;3.45;;
25615;SDS011;13482;48.234;13.006;2023-12-20T01:23:04;5.57;;;4.07;;
25615;SDS011;13482;48.234;13.006;2023-12-20T01:25:31;5.65;;;3.95;;
25615;SDS011;13482;48.234;13.006;2023-12-20T01:27:59;6.45;;;4.20;;
25615;SDS011;13482;48.234;13.006;2023-12-20T01:30:26;5.95;;;3.85;;
25615;SDS011;13482;48.234;13.006;2023-12-20T01:32:54;5.75;;;4.28;;
25615;SDS011;13482;48.234;13.006;2023-12-20T01:35:21;5.45;;;4.03;;
25615;SDS011;13482;48.234;13.006;2023-12-20T01:37:49;5.22;;;3.85;;
25615;SDS011;13482;48.234;13.006;2023-12-20T01:40:16;4.70;;;3.55;;
25615;SDS011;13482;48.234;13.006;2023-12-20T01:42:44;5.80;;;4.00;;
25615;SDS011;13482;48.234;13.006;2023-12-20T01:45:12;4.88;;;3.47;;
25615;SDS011;13482;48.234;13.006;2023-12-20T01:47:39;5.38;;;4.03;;
25615;SDS011;13482;48.234;13.006;2023-12-20T01:50:07;5.20;;;3.67;;
25615;SDS011;13482;48.234;13.006;2023-12-20T01:52:36;4.50;;;3.38;;
25615;SDS011;13482;48.234;13.006;2023-12-20T01:55:04;5.97;;;3.42;;
25615;SDS011;13482;48.234;13.006;2023-12-20T01:57:40;5.53;;;3.75;;
25615;SDS011;13482;48.234;13.006;2023-12-20T02:00:10;5.53;;;3.50;;
25615;SDS011;13482;48.234;13.006;2023-12-20T02:02:41;5.15;;;3.33;;
25615;SDS011;13482;48.234;13.006;2023-12-20T02:05:10;4.85;;;3.55;;
25615;SDS011;13482;48.234;13.006;2023-12-20T02:07:39;3.95;;;2.70;;
25615;SDS011;13482;48.234;13.006;2023-12-20T02:10:07;4.55;;;3.00;;
25615;SDS011;13482;48.234;13.006;2023-12-20T02:12:35;4.82;;;3.08;;
25615;SDS011;13482;48.234;13.006;2023-12-20T02:15:03;4.05;;;3.03;;
25615;SDS011;13482;48.234;13.006;2023-12-20T02:17:32;5.05;;;3.60;;
25615;SDS011;13482;48.234;13.006;2023-12-20T02:20:00;4.72;;;3.40;;
25615;SDS011;13482;48.234;13.006;2023-12-20T02:22:29;5.05;;;3.67;;
25615;SDS011;13482;48.234;13.006;2023-12-20T02:24:57;5.05;;;3.50;;
25615;SDS011;13482;48.234;13.006;2023-12-20T02:27:24;4.05;;;3.28;;
25615;SDS011;13482;48.234;13.006;2023-12-20T02:29:52;4.38;;;3.20;;
25615;SDS011;13482;48.234;13.006;2023-12-20T02:32:20;5.32;;;3.20;;
25615;SDS011;13482;48.234;13.006;2023-12-20T02:34:49;5.65;;;3.35;;
25615;SDS011;13482;48.234;13.006;2023-12-20T02:37:17;4.85;;;3.30;;
25615;SDS011;13482;48.234;13.006;2023-12-20T02:39:45;4.25;;;3.30;;
25615;SDS011;13482;48.234;13.006;2023-12-20T02:42:12;5.72;;;3.78;;
25615;SDS011;13482;48.234;13.006;2023-12-20T02:44:40;5.90;;;3.83;;
25615;SDS011;13482;48.234;13.006;2023-12-20T02:47:07;5.57;;;3.70;;
25615;SDS011;13482;48.234;13.006;2023-12-20T02:49:35;4.65;;;3.00;;
25615;SDS011;13482;48.234;13.006;2023-12-20T02:52:03;5.32;;;3.63;;
25615;SDS011;13482;48.234;13.006;2023-12-20T02:54:31;5.60;;;3.88;;
25615;SDS011;13482;48.234;13.006;2023-12-20T02:56:58;4.38;;;3.25;;
25615;SDS011;13482;48.234;13.006;2023-12-20T02:59:26;7.63;;;3.75;;
25615;SDS011;13482;48.234;13.006;2023-12-20T03:01:53;5.25;;;3.80;;
25615;SDS011;13482;48.234;13.006;2023-12-20T03:04:21;5.45;;;3.45;;
25615;SDS011;13482;48.234;13.006;2023-12-20T03:06:49;5.32;;;3.30;;
25615;SDS011;13482;48.234;13.006;2023-12-20T03:09:16;4.40;;;3.40;;
25615;SDS011;13482;48.234;13.006;2023-12-20T03:11:44;4.57;;;3.10;;
25615;SDS011;13482;48.234;13.006;2023-12-20T03:14:11;4.18;;;2.90;;
25615;SDS011;13482;48.234;13.006;2023-12-20T03:16:39;4.57;;;3.10;;
25615;SDS011;13482;48.234;13.006;2023-12-20T03:19:07;6.30;;;3.40;;
25615;SDS011;13482;48.234;13.006;2023-12-20T03:21:35;4.70;;;2.97;;
25615;SDS011;13482;48.234;13.006;2023-12-20T03:24:02;5.28;;;3.05;;
25615;SDS011;13482;48.234;13.006;2023-12-20T03:26:30;4.03;;;2.80;;
25615;SDS011;13482;48.234;13.006;2023-12-20T03:28:57;3.85;;;2.75;;
25615;SDS011;13482;48.234;13.006;2023-12-20T03:31:25;4.57;;;3.00;;
25615;SDS011;13482;48.234;13.006;2023-12-20T03:33:52;5.55;;;3.22;;
25615;SDS011;13482;48.234;13.006;2023-12-20T03:36:20;5.03;;;3.42;;
25615;SDS011;13482;48.234;13.006;2023-12-20T03:38:48;6.90;;;3.22;;
25615;SDS011;13482;48.234;13.006;2023-12-20T03:41:16;5.22;;;3.25;;
25615;SDS011;13482;48.234;13.006;2023-12-20T03:43:43;4.32;;;2.90;;
25615;SDS011;13482;48.234;13.006;2023-12-20T03:46:11;6.55;;;4.10;;
25615;SDS011;13482;48.234;13.006;2023-12-20T03:48:38;6.60;;;4.07;;
25615;SDS011;13482;48.234;13.006;2023-12-20T03:51:06;5.05;;;3.78;;
25615;SDS011;13482;48.234;13.006;2023-12-20T03:53:33;5.70;;;3.35;;
25615;SDS011;13482;48.234;13.006;2023-12-20T03:56:01;4.75;;;3.33;;
25615;SDS011;13482;48.234;13.006;2023-12-20T03:58:28;3.80;;;2.70;;
25615;SDS011;13482;48.234;13.006;2023-12-20T04:00:56;4.32;;;2.63;;
25615;SDS011;13482;48.234;13.006;2023-12-20T04:03:24;4.20;;;2.70;;
25615;SDS011;13482;48.234;13.006;2023-12-20T04:05:51;4.28;;;2.75;;
25615;SDS011;13482;48.234;13.006;2023-12-20T04:08:19;4.25;;;3.00;;
25615;SDS011;13482;48.234;13.006;2023-12-20T04:10:47;5.93;;;3.70;;
25615;SDS011;13482;48.234;13.006;2023-12-20T04:13:15;5.03;;;3.28;;
25615;SDS011;13482;48.234;13.006;2023-12-20T04:15:42;4.93;;;3.13;;
25615;SDS011;13482;48.234;13.006;2023-12-20T04:18:10;4.07;;;2.83;;
25615;SDS011;13482;48.234;13.006;2023-12-20T04:20:37;4.05;;;2.80;;
25615;SDS011;13482;48.234;13.006;2023-12-20T04:23:05;4.00;;;2.53;;
25615;SDS011;13482;48.234;13.006;2023-12-20T04:25:32;3.50;;;2.47;;
25615;SDS011;13482;48.234;13.006;2023-12-20T04:28:00;3.80;;;2.40;;
25615;SDS011;13482;48.234;13.006;2023-12-20T04:30:28;3.22;;;2.40;;
25615;SDS011;13482;48.234;13.006;2023-12-20T04:32:55;4.85;;;2.80;;
25615;SDS011;13482;48.234;13.006;2023-12-20T04:35:23;4.05;;;2.60;;
25615;SDS011;13482;48.234;13.006;2023-12-20T04:37:51;3.53;;;2.42;;
25615;SDS011;13482;48.234;13.006;2023-12-20T04:40:19;3.22;;;2.17;;
25615;SDS011;13482;48.234;13.006;2023-12-20T04:42:46;3.45;;;2.33;;
25615;SDS011;13482;48.234;13.006;2023-12-20T04:45:14;3.33;;;2.13;;
25615;SDS011;13482;48.234;13.006;2023-12-20T04:47:45;4.28;;;2.70;;
25615;SDS011;13482;48.234;13.006;2023-12-20T04:50:14;3.33;;;2.38;;
25615;SDS011;13482;48.234;13.006;2023-12-20T04:52:42;3.67;;;2.20;;
25615;SDS011;13482;48.234;13.006;2023-12-20T04:55:10;2.78;;;2.00;;
25615;SDS011;13482;48.234;13.006;2023-12-20T04:57:38;4.07;;;2.40;;
25615;SDS011;13482;48.234;13.006;2023-12-20T05:00:06;3.88;;;2.30;;
25615;SDS011;13482;48.234;13.006;2023-12-20T05:02:37;3.65;;;2.47;;
25615;SDS011;13482;48.234;13.006;2023-12-20T05:05:04;4.07;;;2.50;;
25615;SDS011;13482;48.234;13.006;2023-12-20T05:07:32;3.95;;;2.53;;
25615;SDS011;13482;48.234;13.006;2023-12-20T05:10:00;3.90;;;2.78;;
25615;SDS011;13482;48.234;13.006;2023-12-20T05:12:28;3.20;;;2.30;;
25615;SDS011;13482;48.234;13.006;2023-12-20T05:14:55;3.45;;;2.33;;
25615;SDS011;13482;48.234;13.006;2023-12-20T05:17:23;4.22;;;2.72;;
25615;SDS011;13482;48.234;13.006;2023-12-20T05:19:51;4.85;;;2.88;;
25615;SDS011;13482;48.234;13.006;2023-12-20T05:22:19;4.20;;;3.15;;
25615;SDS011;13482;48.234;13.006;2023-12-20T05:24:47;4.40;;;2.90;;
25615;SDS011;13482;48.234;13.006;2023-12-20T05:27:14;4.63;;;2.90;;
25615;SDS011;13482;48.234;13.006;2023-12-20T05:29:43;4.03;;;2.75;;
25615;SDS011;13482;48.234;13.006;2023-12-20T05:32:13;3.92;;;2.60;;
25615;SDS011;13482;48.234;13.006;2023-12-20T05:34:41;3.92;;;2.97;;
25615;SDS011;13482;48.234;13.006;2023-12-20T05:37:09;4.78;;;3.33;;
25615;SDS011;13482;48.234;13.006;2023-12-20T05:39:39;3.92;;;2.97;;
25615;SDS011;13482;48.234;13.006;2023-12-20T05:42:06;4.65;;;2.67;;
25615;SDS011;13482;48.234;13.006;2023-12-20T05:44:35;4.15;;;2.85;;
25615;SDS011;13482;48.234;13.006;2023-12-20T05:47:04;4.60;;;2.50;;
25615;SDS011;13482;48.234;13.006;2023-12-20T05:49:34;3.30;;;2.17;;
25615;SDS011;13482;48.234;13.006;2023-12-20T05:52:04;3.80;;;2.55;;
25615;SDS011;13482;48.234;13.006;2023-12-20T05:54:35;3.20;;;2.08;;
25615;SDS011;13482;48.234;13.006;2023-12-20T05:57:15;3.40;;;2.35;;
25615;SDS011;13482;48.234;13.006;2023-12-20T05:59:45;3.53;;;2.30;;
25615;SDS011;13482;48.234;13.006;2023-12-20T06:02:20;3.53;;;2.15;;
25615;SDS011;13482;48.234;13.006;2023-12-20T06:04:51;3.55;;;2.30;;
25615;SDS011;13482;48.234;13.006;2023-12-20T06:20:56;3.70;;;2.30;;
25615;SDS011;13482;48.234;13.006;2023-12-20T06:23:28;3.47;;;2.30;;
25615;SDS011;13482;48.234;13.006;2023-12-20T06:26:02;3.10;;;2.10;;
25615;SDS011;13482;48.234;13.006;2023-12-20T06:28:32;3.20;;;2.22;;
25615;SDS011;13482;48.234;13.006;2023-12-20T06:31:06;3.20;;;2.22;;
25615;SDS011;13482;48.234;13.006;2023-12-20T06:33:37;4.05;;;2.28;;
25615;SDS011;13482;48.234;13.006;2023-12-20T06:36:13;3.08;;;2.17;;
25615;SDS011;13482;48.234;13.006;2023-12-20T06:38:42;3.13;;;1.92;;
25615;SDS011;13482;48.234;13.006;2023-12-20T06:41:12;3.83;;;2.25;;
25615;SDS011;13482;48.234;13.006;2023-12-20T06:43:47;4.43;;;2.30;;
25615;SDS011;13482;48.234;13.006;2023-12-20T06:46:16;4.65;;;2.10;;
25615;SDS011;13482;48.234;13.006;2023-12-20T06:48:48;2.60;;;1.67;;
25615;SDS011;13482;48.234;13.006;2023-12-20T06:51:18;2.63;;;1.77;;
25615;SDS011;13482;48.234;13.006;2023-12-20T06:53:46;3.72;;;1.90;;
25615;SDS011;13482;48.234;13.006;2023-12-20T06:56:14;2.83;;;1.70;;
25615;SDS011;13482;48.234;13.006;2023-12-20T06:58:45;2.90;;;1.90;;
25615;SDS011;13482;48.234;13.006;2023-12-20T07:01:14;2.70;;;1.50;;
25615;SDS011;13482;48.234;13.006;2023-12-20T07:03:42;2.42;;;1.50;;
25615;SDS011;13482;48.234;13.006;2023-12-20T07:06:10;2.58;;;1.60;;
25615;SDS011;13482;48.234;13.006;2023-12-20T07:08:38;2.00;;;1.38;;
25615;SDS011;13482;48.234;13.006;2023-12-20T07:11:09;3.20;;;1.50;;
25615;SDS011;13482;48.234;13.006;2023-12-20T07:13:37;2.10;;;1.35;;
25615;SDS011;13482;48.234;13.006;2023-12-20T07:16:05;5.78;;;3.55;;
25615;SDS011;13482;48.234;13.006;2023-12-20T07:18:33;6.75;;;3.60;;
25615;SDS011;13482;48.234;13.006;2023-12-20T07:21:00;5.05;;;2.78;;
25615;SDS011;13482;48.234;13.006;2023-12-20T07:23:28;4.13;;;2.30;;
25615;SDS011;13482;48.234;13.006;2023-12-20T07:25:56;3.78;;;2.50;;
25615;SDS011;13482;48.234;13.006;2023-12-20T07:28:23;5.38;;;2.72;;
25615;SDS011;13482;48.234;13.006;2023-12-20T07:30:51;5.53;;;3.63;;
25615;SDS011;13482;48.234;13.006;2023-12-20T07:33:19;4.03;;;3.10;;
25615;SDS011;13482;48.234;13.006;2023-12-20T07:35:47;4.72;;;3.70;;
25615;SDS011;13482;48.234;13.006;2023-12-20T07:38:14;3.47;;;2.47;;
25615;SDS011;13482;48.234;13.006;2023-12-20T07:40:42;3.00;;;2.28;;
25615;SDS011;13482;48.234;13.006;2023-12-20T07:43:10;3.10;;;2.45;;
25615;SDS011;13482;48.234;13.006;2023-12-20T07:45:37;2.85;;;2.08;;
25615;SDS011;13482;48.234;13.006;2023-12-20T07:48:06;4.00;;;3.45;;
25615;SDS011;13482;48.234;13.006;2023-12-20T07:50:34;5.05;;;4.55;;
25615;SDS011;13482;48.234;13.006;2023-12-20T07:53:02;5.05;;;3.22;;
25615;SDS011;13482;48.234;13.006;2023-12-20T07:55:30;3.00;;;2.40;;
25615;SDS011;13482;48.234;13.006;2023-12-20T07:57:58;2.85;;;2.35;;
25615;SDS011;13482;48.234;13.006;2023-12-20T08:00:26;2.75;;;2.30;;
25615;SDS011;13482;48.234;13.006;2023-12-20T08:02:54;2.60;;;1.88;;
25615;SDS011;13482;48.234;13.006;2023-12-20T08:05:22;2.55;;;1.63;;
25615;SDS011;13482;48.234;13.006;2023-12-20T08:07:49;1.90;;;1.30;;
25615;SDS011;13482;48.234;13.006;2023-12-20T08:10:17;2.45;;;1.48;;
25615;SDS011;13482;48.234;13.006;2023-12-20T08:12:46;2.20;;;1.40;;
25615;SDS011;13482;48.234;13.006;2023-12-20T08:15:13;2.67;;;1.80;;
25615;SDS011;13482;48.234;13.006;2023-12-20T08:17:41;3.63;;;2.13;;
25615;SDS011;13482;48.234;13.006;2023-12-20T08:20:10;3.08;;;2.25;;
25615;SDS011;13482;48.234;13.006;2023-12-20T08:22:41;3.35;;;2.10;;
25615;SDS011;13482;48.234;13.006;2023-12-20T08:25:08;4.60;;;2.17;;
25615;SDS011;13482;48.234;13.006;2023-12-20T08:27:39;2.95;;;1.90;;
25615;SDS011;13482;48.234;13.006;2023-12-20T08:30:08;2.33;;;1.50;;
25615;SDS011;13482;48.234;13.006;2023-12-20T08:32:37;2.10;;;1.30;;
25615;SDS011;13482;48.234;13.006;2023-12-20T08:35:04;1.80;;;1.05;;
25615;SDS011;13482;48.234;13.006;2023-12-20T08:37:32;1.90;;;1.10;;
25615;SDS011;13482;48.234;13.006;2023-12-20T08:39:59;1.80;;;0.90;;
25615;SDS011;13482;48.234;13.006;2023-12-20T08:42:27;1.48;;;0.90;;
25615;SDS011;13482;48.234;13.006;2023-12-20T08:44:58;1.70;;;0.90;;
25615;SDS011;13482;48.234;13.006;2023-12-20T08:47:25;1.65;;;1.02;;
25615;SDS011;13482;48.234;13.006;2023-12-20T08:49:53;2.35;;;1.42;;
25615;SDS011;13482;48.234;13.006;2023-12-20T08:52:23;2.63;;;1.90;;
25615;SDS011;13482;48.234;13.006;2023-12-20T08:54:51;2.53;;;1.42;;
25615;SDS011;13482;48.234;13.006;2023-12-20T08:57:21;1.80;;;1.20;;
25615;SDS011;13482;48.234;13.006;2023-12-20T08:59:52;1.75;;;1.10;;
25615;SDS011;13482;48.234;13.006;2023-12-20T09:02:20;1.33;;;0.93;;
25615;SDS011;13482;48.234;13.006;2023-12-20T09:04:50;1.23;;;0.90;;
25615;SDS011;13482;48.234;13.006;2023-12-20T09:07:27;1.40;;;0.82;;
25615;SDS011;13482;48.234;13.006;2023-12-20T09:09:57;1.67;;;1.00;;
25615;SDS011;13482;48.234;13.006;2023-12-20T09:12:26;1.27;;;0.90;;
25615;SDS011;13482;48.234;13.006;2023-12-20T09:14:54;0.90;;;0.50;;
25615;SDS011;13482;48.234;13.006;2023-12-20T09:17:21;0.93;;;0.70;;
25615;SDS011;13482;48.234;13.006;2023-12-20T09:19:50;1.30;;;0.60;;
25615;SDS011;13482;48.234;13.006;2023-12-20T09:22:20;0.85;;;0.55;;
25615;SDS011;13482;48.234;13.006;2023-12-20T09:24:48;1.15;;;0.70;;
25615;SDS011;13482;48.234;13.006;2023-12-20T09:27:16;1.13;;;0.70;;
25615;SDS011;13482;48.234;13.006;2023-12-20T09:29:44;1.33;;;0.70;;
25615;SDS011;13482;48.234;13.006;2023-12-20T09:32:11;1.05;;;0.50;;
25615;SDS011;13482;48.234;13.006;2023-12-20T09:34:39;0.65;;;0.43;;
25615;SDS011;13482;48.234;13.006;2023-12-20T09:37:08;1.40;;;0.60;;
25615;SDS011;13482;48.234;13.006;2023-12-20T09:39:36;1.13;;;0.68;;
25615;SDS011;13482;48.234;13.006;2023-12-20T09:42:04;1.08;;;0.70;;
25615;SDS011;13482;48.234;13.006;2023-12-20T09:44:33;0.73;;;0.50;;
25615;SDS011;13482;48.234;13.006;2023-12-20T09:47:02;1.52;;;0.80;;
25615;SDS011;13482;48.234;13.006;2023-12-20T09:49:32;1.45;;;1.02;;
25615;SDS011;13482;48.234;13.006;2023-12-20T09:52:00;2.17;;;1.10;;
25615;SDS011;13482;48.234;13.006;2023-12-20T09:54:29;1.70;;;1.10;;
25615;SDS011;13482;48.234;13.006;2023-12-20T09:56:58;1.88;;;0.90;;
25615;SDS011;13482;48.234;13.006;2023-12-20T09:59:25;1.42;;;0.80;;
25615;SDS011;13482;48.234;13.006;2023-12-20T10:01:53;0.70;;;0.40;;
25615;SDS011;13482;48.234;13.006;2023-12-20T10:04:26;0.60;;;0.30;;
25615;SDS011;13482;48.234;13.006;2023-12-20T10:06:56;0.40;;;0.30;;
25615;SDS011;13482;48.234;13.006;2023-12-20T10:09:24;0.60;;;0.40;;
25615;SDS011;13482;48.234;13.006;2023-12-20T10:11:55;1.00;;;0.50;;
25615;SDS011;13482;48.234;13.006;2023-12-20T10:14:24;0.98;;;0.47;;
25615;SDS011;13482;48.234;13.006;2023-12-20T10:16:51;1.67;;;0.50;;
25615;SDS011;13482;48.234;13.006;2023-12-20T10:19:20;0.70;;;0.40;;
25615;SDS011;13482;48.234;13.006;2023-12-20T10:21:48;0.80;;;0.30;;
25615;SDS011;13482;48.234;13.006;2023-12-20T10:24:19;0.60;;;0.32;;
25615;SDS011;13482;48.234;13.006;2023-12-20T10:27:00;0.90;;;0.40;;
25615;SDS011;13482;48.234;13.006;2023-12-20T10:29:34;0.55;;;0.40;;
25615;SDS011;13482;48.234;13.006;2023-12-20T10:32:23;0.47;;;0.30;;
25615;SDS011;13482;48.234;13.006;2023-12-20T10:34:54;1.55;;;1.00;;
25615;SDS011;13482;48.234;13.006;2023-12-20T10:37:23;4.75;;;3.75;;
25615;SDS011;13482;48.234;13.006;2023-12-20T10:39:52;3.00;;;2.33;;
25615;SDS011;13482;48.234;13.006;2023-12-20T10:42:25;3.92;;;2.97;;
25615;SDS011;13482;48.234;13.006;2023-12-20T10:44:54;3.55;;;2.25;;
25615;SDS011;13482;48.234;13.006;2023-12-20T10:47:22;3.65;;;3.30;;
25615;SDS011;13482;48.234;13.006;2023-12-20T10:49:52;3.20;;;2.90;;
25615;SDS011;13482;48.234;13.006;2023-12-20T10:52:25;3.20;;;2.90;;
25615;SDS011;13482;48.234;13.006;2023-12-20T10:54:54;2.10;;;1.90;;
25615;SDS011;13482;48.234;13.006;2023-12-20T10:57:22;2.78;;;1.60;;
25615;SDS011;13482;48.234;13.006;2023-12-20T10:59:55;1.30;;;1.00;;
25615;SDS011;13482;48.234;13.006;2023-12-20T11:02:33;0.80;;;0.60;;
25615;SDS011;13482;48.234;13.006;2023-12-20T11:08:17;1.05;;;0.50;;
25615;SDS011;13482;48.234;13.006;2023-12-20T11:14:20;0.30;;;0.28;;
25615;SDS011;13482;48.234;13.006;2023-12-20T11:17:08;0.38;;;0.20;;
25615;SDS011;13482;48.234;13.006;2023-12-20T11:22:25;0.47;;;0.45;;
25615;SDS011;13482;48.234;13.006;2023-12-20T11:24:55;0.52;;;0.38;;
25615;SDS011;13482;48.234;13.006;2023-12-20T11:27:35;1.73;;;0.40;;
25615;SDS011;13482;48.234;13.006;2023-12-20T11:30:09;0.32;;;0.30;;
25615;SDS011;13482;48.234;13.006;2023-12-20T11:32:37;0.50;;;0.35;;
25615;SDS011;13482;48.234;13.006;2023-12-20T11:37:36;0.45;;;0.30;;
25615;SDS011;13482;48.234;13.006;2023-12-20T11:40:16;0.80;;;0.30;;
25615;SDS011;13482;48.234;13.006;2023-12-20T11:42:45;4.40;;;4.00;;
25615;SDS011;13482;48.234;13.006;2023-12-20T11:45:18;18.45;;;16.77;;
25615;SDS011;13482;48.234;13.006;2023-12-20T11:47:53;12.25;;;11.05;;
25615;SDS011;13482;48.234;13.006;2023-12-20T11:50:21;7.78;;;7.00;;
25615;SDS011;13482;48.234;13.006;2023-12-20T11:52:51;6.97;;;6.38;;
25615;SDS011;13482;48.234;13.006;2023-12-20T11:55:25;7.40;;;6.70;;
25615;SDS011;13482;48.234;13.006;2023-12-20T11:57:56;7.30;;;6.70;;
25615;SDS011;13482;48.234;13.006;2023-12-20T12:00:24;4.38;;;3.97;;
25615;SDS011;13482;48.234;13.006;2023-12-20T12:02:58;3.63;;;2.60;;
25615;SDS011;13482;48.234;13.006;2023-12-20T12:05:26;2.30;;;1.80;;
25615;SDS011;13482;48.234;13.006;2023-12-20T12:07:56;2.40;;;1.30;;
25615;SDS011;13482;48.234;13.006;2023-12-20T12:10:23;1.27;;;1.02;;
25615;SDS011;13482;48.234;13.006;2023-12-20T12:12:54;1.30;;;1.10;;
25615;SDS011;13482;48.234;13.006;2023-12-20T12:15:22;1.10;;;0.82;;
25615;SDS011;13482;48.234;13.006;2023-12-20T12:17:56;1.90;;;0.80;;
25615;SDS011;13482;48.234;13.006;2023-12-20T12:20:26;1.75;;;0.95;;
25615;SDS011;13482;48.234;13.006;2023-12-20T12:23:00;0.70;;;0.63;;
25615;SDS011;13482;48.234;13.006;2023-12-20T12:25:34;1.20;;;0.68;;
25615;SDS011;13482;48.234;13.006;2023-12-20T12:28:09;0.77;;;0.43;;
25615;SDS011;13482;48.234;13.006;2023-12-20T12:30:37;0.95;;;0.40;;
25615;SDS011;13482;48.234;13.006;2023-12-20T12:33:18;0.50;;;0.35;;
25615;SDS011;13482;48.234;13.006;2023-12-20T12:35:46;1.13;;;0.65;;
25615;SDS011;13482;48.234;13.006;2023-12-20T12:38:14;0.82;;;0.50;;
25615;SDS011;13482;48.234;13.006;2023-12-20T12:40:43;0.88;;;0.60;;
25615;SDS011;13482;48.234;13.006;2023-12-20T12:43:11;3.03;;;2.42;;
25615;SDS011;13482;48.234;13.006;2023-12-20T12:45:39;13.25;;;10.10;;
25615;SDS011;13482;48.234;13.006;2023-12-20T12:48:07;9.95;;;8.27;;
25615;SDS011;13482;48.234;13.006;2023-12-20T12:50:35;8.15;;;6.47;;
25615;SDS011;13482;48.234;13.006;2023-12-20T12:53:02;13.93;;;12.50;;
25615;SDS011;13482;48.234;13.006;2023-12-20T12:55:30;36.92;;;33.35;;
25615;SDS011;13482;48.234;13.006;2023-12-20T12:57:58;18.20;;;16.25;;
25615;SDS011;13482;48.234;13.006;2023-12-20T13:00:29;22.63;;;19.83;;
25615;SDS011;13482;48.234;13.006;2023-12-20T13:02:56;16.25;;;14.57;;
25615;SDS011;13482;48.234;13.006;2023-12-20T13:05:24;9.80;;;8.80;;
25615;SDS011;13482;48.234;13.006;2023-12-20T13:07:52;6.90;;;6.20;;
25615;SDS011;13482;48.234;13.006;2023-12-20T13:10:20;4.75;;;3.50;;
25615;SDS011;13482;48.234;13.006;2023-12-20T13:12:48;3.03;;;2.40;;
25615;SDS011;13482;48.234;13.006;2023-12-20T13:15:16;2.17;;;1.63;;
25615;SDS011;13482;48.234;13.006;2023-12-20T13:17:43;2.00;;;1.50;;
25615;SDS011;13482;48.234;13.006;2023-12-20T13:20:13;1.83;;;1.23;;
25615;SDS011;13482;48.234;13.006;2023-12-20T13:22:41;1.30;;;1.00;;
25615;SDS011;13482;48.234;13.006;2023-12-20T13:25:08;1.30;;;0.77;;
25615;SDS011;13482;48.234;13.006;2023-12-20T13:27:36;1.40;;;0.90;;
25615;SDS011;13482;48.234;13.006;2023-12-20T13:30:04;1.27;;;0.70;;
25615;SDS011;13482;48.234;13.006;2023-12-20T13:32:33;1.15;;;0.70;;
25615;SDS011;13482;48.234;13.006;2023-12-20T13:35:01;0.65;;;0.50;;
25615;SDS011;13482;48.234;13.006;2023-12-20T13:37:30;0.93;;;0.40;;
25615;SDS011;13482;48.234;13.006;2023-12-20T13:39:58;1.17;;;0.40;;
25615;SDS011;13482;48.234;13.006;2023-12-20T13:42:25;1.10;;;0.40;;
25615;SDS011;13482;48.234;13.006;2023-12-20T13:44:54;0.50;;;0.40;;
25615;SDS011;13482;48.234;13.006;2023-12-20T13:47:22;0.70;;;0.50;;
25615;SDS011;13482;48.234;13.006;2023-12-20T13:49:50;1.17;;;0.63;;
25615;SDS011;13482;48.234;13.006;2023-12-20T13:52:19;0.45;;;0.30;;
25615;SDS011;13482;48.234;13.006;2023-12-20T13:54:46;1.10;;;0.40;;
25615;SDS011;13482;48.234;13.006;2023-12-20T13:57:14;0.55;;;0.40;;
25615;SDS011;13482;48.234;13.006;2023-12-20T13:59:46;0.73;;;0.40;;
25615;SDS011;13482;48.234;13.006;2023-12-20T14:02:14;0.75;;;0.50;;
25615;SDS011;13482;48.234;13.006;2023-12-20T14:04:43;1.00;;;0.43;;
25615;SDS011;13482;48.234;13.006;2023-12-20T14:07:10;0.95;;;0.45;;
25615;SDS011;13482;48.234;13.006;2023-12-20T14:09:39;0.93;;;0.60;;
25615;SDS011;13482;48.234;13.006;2023-12-20T14:12:13;0.82;;;0.50;;
25615;SDS011;13482;48.234;13.006;2023-12-20T14:14:41;0.80;;;0.50;;
25615;SDS011;13482;48.234;13.006;2023-12-20T14:17:09;0.30;;;0.30;;
25615;SDS011;13482;48.234;13.006;2023-12-20T14:19:36;0.90;;;0.57;;
25615;SDS011;13482;48.234;13.006;2023-12-20T14:22:04;0.30;;;0.30;;
25615;SDS011;13482;48.234;13.006;2023-12-20T14:24:33;0.60;;;0.40;;
25615;SDS011;13482;48.234;13.006;2023-12-20T14:27:02;1.13;;;0.60;;
25615;SDS011;13482;48.234;13.006;2023-12-20T14:29:30;0.70;;;0.47;;
25615;SDS011;13482;48.234;13.006;2023-12-20T14:31:57;1.20;;;0.40;;
25615;SDS011;13482;48.234;13.006;2023-12-20T14:34:25;1.10;;;0.60;;
25615;SDS011;13482;48.234;13.006;2023-12-20T14:36:53;0.63;;;0.50;;
25615;SDS011;13482;48.234;13.006;2023-12-20T14:39:20;1.30;;;0.50;;
25615;SDS011;13482;48.234;13.006;2023-12-20T14:41:49;1.08;;;0.63;;
25615;SDS011;13482;48.234;13.006;2023-12-20T14:44:16;0.65;;;0.50;;
25615;SDS011;13482;48.234;13.006;2023-12-20T14:46:44;1.00;;;0.50;;
25615;SDS011;13482;48.234;13.006;2023-12-20T14:49:11;1.00;;;0.50;;
25615;SDS011;13482;48.234;13.006;2023-12-20T14:51:43;1.00;;;0.50;;
25615;SDS011;13482;48.234;13.006;2023-12-20T14:54:11;0.70;;;0.40;;
25615;SDS011;13482;48.234;13.006;2023-12-20T14:56:39;0.68;;;0.32;;
25615;SDS011;13482;48.234;13.006;2023-12-20T14:59:10;1.00;;;0.50;;
25615;SDS011;13482;48.234;13.006;2023-12-20T15:01:39;1.00;;;0.60;;
25615;SDS011;13482;48.234;13.006;2023-12-20T15:04:16;1.77;;;0.70;;
25615;SDS011;13482;48.234;13.006;2023-12-20T15:06:48;4.53;;;0.60;;
25615;SDS011;13482;48.234;13.006;2023-12-20T15:09:16;1.42;;;0.73;;